Second Wind — WDD3557 — position and weather

sailwx.info

Track history (hours):
 
Tides and Currents Weather Stations Pressure Air Temp Water Temp Dewpoint Dewpoint Depression Visibility Wind Speed Wind Dir Waves Ship Positions

Second Wind

Owner: Atlantic Capes Fisheries, Inc, Cape May, NJ. More information available from US FCC via Universal Licensing System and Coast Guard Vessel Documentation Center.

Last reported at 2017-Oct-22 14:07 UTC. Time now 2017-Nov-19 10:25 UTC.
Position N 38°57' W 074°53'.
Warning: this ship's position is 27 days out of date.

Length 21 m.

Type: Fishing. MMSI: 367133080.

Date/timePositionNaut miles runAvg speedWind from/ knotsBaromVisibWave heightAir tempDewpointWater temp
2017-Oct-22 14:07N 38°57' W 074°53'0 0.0
2017-Oct-22 13:52N 38°58' W 074°53'0 0.0
2017-Oct-22 13:25N 38°58' W 074°53'0 0.0
2017-Oct-22 12:58N 38°58' W 074°53'0 0.0
2017-Oct-22 12:28N 38°58' W 074°53'0 0.0
2017-Oct-22 11:49N 38°58' W 074°53'0 0.0
2017-Oct-22 11:25N 38°58' W 074°53'0 0.0
2017-Oct-22 10:40N 38°58' W 074°53'0 0.0
2017-Oct-22 10:04N 38°58' W 074°53'0 0.0
2017-Oct-22 09:52N 38°58' W 074°53'0 0.0
2017-Oct-22 09:25N 38°58' W 074°53'0 0.0
2017-Oct-22 08:55N 38°58' W 074°53'0 0.0
2017-Oct-22 08:28N 38°58' W 074°53'0 0.0
2017-Oct-22 07:49N 38°58' W 074°53'0 0.0
2017-Oct-22 07:28N 38°58' W 074°53'0 0.0
2017-Oct-22 06:58N 38°58' W 074°53'0 0.0
2017-Oct-22 06:25N 38°58' W 074°53'0 0.0
2017-Oct-22 05:58N 38°58' W 074°53'0 0.0
2017-Oct-22 05:28N 38°58' W 074°53'0 0.0
2017-Oct-22 04:52N 38°58' W 074°53'0 0.0
2017-Oct-22 02:40N 38°58' W 074°53'0 0.0
2017-Oct-22 02:28N 38°58' W 074°53'0 0.0
2017-Oct-22 01:58N 38°58' W 074°53'0 0.0
2017-Oct-22 01:28N 38°58' W 074°53'0 0.0
2017-Oct-22 00:49N 38°58' W 074°53'0 0.0
2017-Oct-22 00:25N 38°58' W 074°53'0 0.0
2017-Oct-21 13:58N 38°58' W 074°53'0 0.0
2017-Oct-20 11:35N 38°58' W 074°53'0 1.0
2017-Oct-20 11:27N 38°57' W 074°52'3 5.4
2017-Oct-20 10:54N 38°56' W 074°49'5 7.7
2017-Oct-20 10:19N 38°59' W 074°44'2 7.7
2017-Oct-20 09:59N 39°01' W 074°43'4 7.6
2017-Oct-20 09:29N 39°05' W 074°41'4 7.5
2017-Oct-20 09:00N 39°08' W 074°38'4 7.4
2017-Oct-20 08:30N 39°11' W 074°35'4 7.3
2017-Oct-20 07:58N 39°13' W 074°31'4 7.3
2017-Oct-20 07:29N 39°15' W 074°27'4 7.1
2017-Oct-20 06:54N 39°17' W 074°23'3 7.1
2017-Oct-20 06:28N 39°19' W 074°20'3 7.0
2017-Oct-20 06:00N 39°21' W 074°16'11 6.8
2017-Oct-20 04:23N 39°28' W 074°05'  
Track history (hours):
 
Tides and Currents Weather Stations Pressure Air Temp Water Temp Dewpoint Dewpoint Depression Visibility Wind Speed Wind Dir Waves Ship Positions

Second Wind

Owner: Atlantic Capes Fisheries, Inc, Cape May, NJ. More information available from US FCC via Universal Licensing System and Coast Guard Vessel Documentation Center.

Last reported at 2017-Oct-22 14:07 UTC. Time now 2017-Nov-19 10:25 UTC.
Position N 38°57' W 074°53'.
Warning: this ship's position is 27 days out of date.

Length 21 m.

Type: Fishing. MMSI: 367133080.

Date/timePositionNaut miles runAvg speedWind from/ knotsBaromVisibWave heightAir tempDewpointWater temp
2017-Oct-22 14:07N 38°57' W 074°53'0 0.0
2017-Oct-22 13:52N 38°58' W 074°53'0 0.0
2017-Oct-22 13:25N 38°58' W 074°53'0 0.0
2017-Oct-22 12:58N 38°58' W 074°53'0 0.0
2017-Oct-22 12:28N 38°58' W 074°53'0 0.0
2017-Oct-22 11:49N 38°58' W 074°53'0 0.0
2017-Oct-22 11:25N 38°58' W 074°53'0 0.0
2017-Oct-22 10:40N 38°58' W 074°53'0 0.0
2017-Oct-22 10:04N 38°58' W 074°53'0 0.0
2017-Oct-22 09:52N 38°58' W 074°53'0 0.0
2017-Oct-22 09:25N 38°58' W 074°53'0 0.0
2017-Oct-22 08:55N 38°58' W 074°53'0 0.0
2017-Oct-22 08:28N 38°58' W 074°53'0 0.0
2017-Oct-22 07:49N 38°58' W 074°53'0 0.0
2017-Oct-22 07:28N 38°58' W 074°53'0 0.0
2017-Oct-22 06:58N 38°58' W 074°53'0 0.0
2017-Oct-22 06:25N 38°58' W 074°53'0 0.0
2017-Oct-22 05:58N 38°58' W 074°53'0 0.0
2017-Oct-22 05:28N 38°58' W 074°53'0 0.0
2017-Oct-22 04:52N 38°58' W 074°53'0 0.0
2017-Oct-22 02:40N 38°58' W 074°53'0 0.0
2017-Oct-22 02:28N 38°58' W 074°53'0 0.0
2017-Oct-22 01:58N 38°58' W 074°53'0 0.0
2017-Oct-22 01:28N 38°58' W 074°53'0 0.0
2017-Oct-22 00:49N 38°58' W 074°53'0 0.0
2017-Oct-22 00:25N 38°58' W 074°53'0 0.0
2017-Oct-21 13:58N 38°58' W 074°53'0 0.0
2017-Oct-20 11:35N 38°58' W 074°53'0 1.0
2017-Oct-20 11:27N 38°57' W 074°52'3 5.4
2017-Oct-20 10:54N 38°56' W 074°49'5 7.7
2017-Oct-20 10:19N 38°59' W 074°44'2 7.7
2017-Oct-20 09:59N 39°01' W 074°43'4 7.6
2017-Oct-20 09:29N 39°05' W 074°41'4 7.5
2017-Oct-20 09:00N 39°08' W 074°38'4 7.4
2017-Oct-20 08:30N 39°11' W 074°35'4 7.3
2017-Oct-20 07:58N 39°13' W 074°31'4 7.3
2017-Oct-20 07:29N 39°15' W 074°27'4 7.1
2017-Oct-20 06:54N 39°17' W 074°23'3 7.1
2017-Oct-20 06:28N 39°19' W 074°20'3 7.0
2017-Oct-20 06:00N 39°21' W 074°16'11 6.8
2017-Oct-20 04:23N 39°28' W 074°05'  

Dump ship's entire track history